Weather at Tooele Army Depot /South Area/ Heliport

Public forecast

Using degrees Fahrenheit for public forecast. Weather courtesy of forecast.io.

Closest aviation weather report (METAR) to Tooele Army Depot /South Area/ Heliport

Closest report is Bolinder Field Tooele Valley Airport, 17.8 nm (33.0 km) N. Retrieved 2022/01/22 20:35 UTC (0 seconds ago):

KTVY 222035Z AUTO 35007KT 10SM CLR 00/M02 A3041 RMK AO2

Closest aviation forecast (TAF) to Tooele Army Depot /South Area/ Heliport

Closest forecast is Provo-Utah Lake International Airport, 27.5 nm (50.9 km) ESE. Retrieved 2022/01/22 18:33 UTC (2 hours ago):

TAF KPVU 221730Z 2218/2318 32007KT P6SM FEW250 FM230300 VRB03KT P6SM SKC